Gridley, Kansas
Current Conditions -  °F | °C
As of 4:33 PM on Thursday 23 Oct 2014 (Local Time) from KEMP Reporting Station
Scattered Clouds Scattered Clouds  
Wind Chill: 69°   Ceiling: Unl
Heat Index: 69°   Visibility: 10mi
Dew Point: 61°   Wind: 0mph
Humidity: 75%   Direction: NA
Pressure: 30.04"   Gusts: NA
Location:  38.1°N, 95.88°W
Report Text: KEMP 232133Z AUTO 00000KT 10SM SCT025 SCT032 21/16 A3004 RMK AO2 T02060161
Loading
Personal Weather Stations






























Interactive Weather Map
Tropical Storm Tracking
New forecast layout! Learn more

10-Day Weather Forecast

Advertisements
Track Severe Weather on mobile